Kenosha, WI (53144)

3:48 PM CST on March 02, 2015 (GMT -0600)
Stonefield North | Change Station
CLOSE
Current Station
Personal Weather Station
Location: Kenosha, WI
Elevation: 728 ft
Nearby Weather Stations
Active Advisory: Winter Weather Advisory

Elev 728 ft 42.62 °N, 87.87 °W | Updated 20 seconds ago

Clear
Clear
28.0 °F
Feels Like 23 °F
N
4.5
Wind Variable Wind from East
Gusts 6.9 mph

Today
High -- | Low -- °F
--% Chance of Precip.
Yesterday
High -- | Low -- °F
Precip. -- in
6:25 AM 5:42 PM
Waxing Gibbous, 93% visible
Pressure 30.47 in
Visibility 10.0 miles
Clouds Clear
Windchill 23 °F
Dew Point 10 °F
Humidity 45%
Rainfall 0.00 in
Snow Depth Not available.
UV 3 out of 12
Pollen .50 out of 12
Air Quality Not available.
Flu Activity Not available.
METAR KENW 022053Z 00000KT 10SM CLR M03/M11 A3043 RMK AO2 SLP317 T10281111 56024 $

More Conditions Fewer Conditions

Pressure 30.47 in
Visibility 10.0 miles
Clouds Clear
Windchill 23 °F
Dew Point 10 °F
Humidity 45%
Rainfall 0.00 in
Snow Depth Not available.
UV 3 out of 12
Pollen .50 out of 12
Air Quality Not available.
Flu Activity Not available.
METAR KENW 022053Z 00000KT 10SM CLR M03/M11 A3043 RMK AO2 SLP317 T10281111 56024 $

More Conditions Fewer Conditions

10-Day Weather Forecast

Almanac

Astronomy

Mar. 02, 2015 Rise Set
Actual Time
Civil Twilight
Nautical Twilight
Astronomical Twilight
Moon
Length of Visible Light
Length of Day
Tomorrow will be .
, % of the Moon is Illuminated

Today's Extremes

State Highs State Lows

Community

WunderPhotos

Upload Photos

1,801,965 photos uploaded!

WunderBlogs® & News

Nearby

Air Quality

  Air Quality AQ Index Pollutant
Not available.

Snow Depth

Station Depth Elevation

Earthquake Activity

City Distance Mag. Time & Date
Minimum magnitude displayed is 2.5.

Coastal Water Temperatures

Place Temperature

Nearby Weather Stations

Winter Weather Advisory
Statement as of 3:06 PM CST on March 02, 2015

... Winter Weather Advisory remains in effect from 3 am to 6 PM
CST Tuesday...

A Winter Weather Advisory remains in effect from 3 am to 6 PM CST
Tuesday.

* Timing... snow will arrive early Tuesday morning and
transition to sleet... freezing rain and rain from mid morning
through the afternoon. Precipitation will taper off during the
late afternoon.

* Snow accumulations... 1 to 3 inches.

* Impacts... a period of heavy... wet snow and then a wintry mix
will cause slippery roads during the Tuesday morning commute.

Precautionary/preparedness actions...

A Winter Weather Advisory means that periods of snow... sleet... or
freezing rain will cause travel difficulties. Be prepared for
slippery roads and limited visibilities... and use caution while
driving.